Powell Butte, Oregon
Current Conditions -  °F | °C
As of 2:35 PM on Monday 24 Nov 2014 (Local Time) from KS39 Reporting Station
Clear Clear  
Wind Chill:   Ceiling: Unl
Heat Index:   Visibility: 10mi
Dew Point:   Wind: 0mph
Humidity: 66%   Direction: NA
Pressure: 30.32"   Gusts: NA
Location:  44.25°N, 121.02°W
Report Text: KS39 242235Z AUTO 00000KT 10SM CLR 08/02 A3032 RMK AO2
Loading
Personal Weather Stations






























Interactive Weather Map New forecast layout! Learn more

10-Day Weather Forecast

Advertisements
Track Severe Weather on mobile